createdAt,value
2023-03-06T00:01:19.197Z,99848.47
2023-03-06T00:03:48.699Z,99846.84
2023-03-06T00:06:17.699Z,99851.50
2023-03-06T00:08:46.059Z,99850.81
2023-03-06T00:11:15.128Z,99844.97
2023-03-06T00:13:43.204Z,99844.13
2023-03-06T00:16:13.434Z,99838.78
2023-03-06T00:18:44.371Z,99846.44
2023-03-06T00:21:16.322Z,99845.50
2023-03-06T00:23:46.520Z,99837.56
2023-03-06T00:26:15.150Z,99848.13
2023-03-06T00:28:46.072Z,99848.13
2023-03-06T00:31:16.312Z,99847.19
2023-03-06T00:33:46.173Z,99852.44
2023-03-06T00:36:58.505Z,99840.91
2023-03-06T00:39:26.474Z,99842.41
2023-03-06T00:41:56.273Z,99840.63
2023-03-06T00:44:24.844Z,99837.88
2023-03-06T00:46:56.878Z,99844.28
2023-03-06T00:49:26.173Z,99843.78
2023-03-06T00:51:54.694Z,99841.47
2023-03-06T00:54:22.964Z,99839.88
2023-03-06T00:56:52.197Z,99833.09
2023-03-06T00:59:20.416Z,99836.84
2023-03-06T01:01:53.434Z,99842.47
2023-03-06T01:04:22.671Z,99839.19
2023-03-06T01:06:52.844Z,99842.78
2023-03-06T01:09:22.396Z,99843.75
2023-03-06T01:11:50.800Z,99837.69
2023-03-06T01:14:21.132Z,99838.69
2023-03-06T01:16:49.823Z,99835.31
2023-03-06T01:19:20.155Z,99837.16
2023-03-06T01:21:48.985Z,99833.91
2023-03-06T01:24:17.513Z,99837.44
2023-03-06T01:26:49.486Z,99843.56
2023-03-06T01:29:17.705Z,99834.13
2023-03-06T01:31:45.900Z,99836.91
2023-03-06T01:34:13.978Z,99830.97
2023-03-06T01:36:45.130Z,99837.97
2023-03-06T01:39:13.400Z,99839.75
2023-03-06T01:41:46.345Z,99836.22
2023-03-06T01:44:15.539Z,99838.06
2023-03-06T01:46:45.541Z,99836.38
2023-03-06T01:49:23.148Z,99833.13
2023-03-06T01:52:07.787Z,99830.50
2023-03-06T01:54:42.917Z,99835.84
2023-03-06T01:57:35.037Z,99835.94
2023-03-06T02:00:22.576Z,99833.28
2023-03-06T02:02:56.411Z,99833.38
2023-03-06T02:05:25.453Z,99828.16
2023-03-06T02:08:17.338Z,99826.53
2023-03-06T02:11:16.441Z,99830.06
2023-03-06T02:13:46.547Z,99839.66
2023-03-06T02:16:15.026Z,99834.44
2023-03-06T02:18:44.853Z,99830.13
2023-03-06T02:21:25.489Z,99836.47
2023-03-06T02:24:02.307Z,99831.06
2023-03-06T02:26:30.882Z,99838.19
2023-03-06T02:28:59.765Z,99836.56
2023-03-06T02:31:29.989Z,99836.50
2023-03-06T02:34:04.964Z,99839.19
2023-03-06T02:36:36.388Z,99836.47
2023-03-06T02:39:04.632Z,99830.38
2023-03-06T02:41:32.889Z,99832.28
2023-03-06T02:44:01.230Z,99836.69
2023-03-06T02:46:30.196Z,99835.84
2023-03-06T02:48:58.370Z,99835.84
2023-03-06T02:51:34.012Z,99843.81
2023-03-06T02:54:02.320Z,99834.31
2023-03-06T02:56:30.487Z,99842.28
2023-03-06T02:58:58.966Z,99840.56
2023-03-06T03:01:27.415Z,99845.91
2023-03-06T03:03:56.055Z,99845.19
2023-03-06T03:06:23.963Z,99839.03
2023-03-06T03:08:52.464Z,99838.16
2023-03-06T03:11:23.206Z,99839.03
2023-03-06T03:13:51.748Z,99832.13
2023-03-06T03:16:19.870Z,99825.16
2023-03-06T03:18:53.481Z,99831.19
2023-03-06T03:21:21.551Z,99826.84
2023-03-06T03:23:50.025Z,99833.03
2023-03-06T03:26:20.561Z,99834.78
2023-03-06T03:28:49.188Z,99839.25
2023-03-06T03:31:20.027Z,99825.25
2023-03-06T03:33:48.447Z,99822.63
2023-03-06T03:36:16.587Z,99820.81
2023-03-06T03:38:45.175Z,99820.81
2023-03-06T03:41:14.790Z,99826.94
2023-03-06T03:43:43.720Z,99816.34
2023-03-06T03:46:11.881Z,99818.91
2023-03-06T03:48:40.851Z,99820.69
2023-03-06T03:51:11.034Z,99818.06
2023-03-06T03:53:39.202Z,99820.63
2023-03-06T03:56:07.354Z,99819.13
2023-03-06T03:58:39.764Z,99826.03
2023-03-06T04:01:08.263Z,99814.66
2023-03-06T04:03:36.451Z,99818.09
2023-03-06T04:06:04.567Z,99810.16
2023-03-06T04:08:35.530Z,99823.25
2023-03-06T04:11:03.993Z,99831.13
2023-03-06T04:13:31.971Z,99822.25
2023-03-06T04:16:01.193Z,99832.59
2023-03-06T04:18:29.922Z,99828.88
2023-03-06T04:20:58.606Z,99828.72
2023-03-06T04:23:28.333Z,99826.78
2023-03-06T04:25:56.613Z,99830.13
2023-03-06T04:28:30.172Z,99831.59
2023-03-06T04:30:59.918Z,99837.22
2023-03-06T04:33:28.350Z,99836.69
2023-03-06T04:35:56.300Z,99836.69
2023-03-06T04:38:24.267Z,99845.34
2023-03-06T04:40:55.220Z,99843.22
2023-03-06T04:43:23.449Z,99837.03
2023-03-06T04:45:54.078Z,99826.66
2023-03-06T04:48:22.133Z,99811.97
2023-03-06T04:50:50.464Z,99827.69
2023-03-06T04:53:21.683Z,99833.44
2023-03-06T04:55:50.547Z,99835.44
2023-03-06T04:58:19.438Z,99835.44
2023-03-06T05:00:47.676Z,99837.13
2023-03-06T05:03:15.617Z,99838.56
2023-03-06T05:05:46.801Z,99838.78
2023-03-06T05:08:15.890Z,99843.03
2023-03-06T05:10:45.738Z,99845.41
2023-03-06T05:13:14.918Z,99848.78
2023-03-06T05:15:43.288Z,99848.81
2023-03-06T05:18:13.298Z,99838.41
2023-03-06T05:20:47.511Z,99845.78
2023-03-06T05:23:15.921Z,99851.56
2023-03-06T05:25:44.574Z,99855.28
2023-03-06T05:28:13.997Z,99852.13
2023-03-06T05:30:44.553Z,99868.41
2023-03-06T05:33:12.678Z,99866.16
2023-03-06T05:35:49.470Z,99856.88
2023-03-06T05:38:19.139Z,99851.19
2023-03-06T05:40:49.183Z,99854.50
2023-03-06T05:43:17.093Z,99878.81
2023-03-06T05:45:45.484Z,99875.00
2023-03-06T05:48:14.271Z,99901.13
2023-03-06T05:50:42.924Z,99908.31
2023-03-06T05:53:12.727Z,99905.16
2023-03-06T05:55:40.903Z,99910.69
2023-03-06T05:58:09.175Z,99908.22
2023-03-06T06:00:40.068Z,99915.94
2023-03-06T06:03:08.221Z,99923.63
2023-03-06T06:05:40.309Z,99920.28
2023-03-06T06:08:08.325Z,99924.72
2023-03-06T06:10:36.064Z,99924.72
2023-03-06T06:13:04.088Z,99921.03
2023-03-06T06:15:32.318Z,99929.78
2023-03-06T06:18:04.880Z,99933.28
2023-03-06T06:20:33.030Z,99927.97
2023-03-06T06:23:01.632Z,99940.13
2023-03-06T06:25:29.795Z,99942.94
2023-03-06T06:27:58.299Z,99937.94
2023-03-06T06:30:26.119Z,99933.00
2023-03-06T06:32:54.296Z,99948.69
2023-03-06T06:35:22.666Z,99935.78
2023-03-06T06:37:50.704Z,99934.56
2023-03-06T06:40:19.026Z,99937.22
2023-03-06T06:42:47.628Z,99936.63
2023-03-06T06:45:15.719Z,99935.97
2023-03-06T06:47:44.915Z,99939.66
2023-03-06T06:50:14.588Z,99934.69
2023-03-06T06:52:43.418Z,99937.06
2023-03-06T06:55:18.243Z,99945.91
2023-03-06T06:57:46.591Z,99948.66
2023-03-06T07:00:18.073Z,99939.22
2023-03-06T07:02:51.747Z,99942.72
2023-03-06T07:05:21.128Z,99949.47
2023-03-06T07:07:53.471Z,99946.72
2023-03-06T07:10:21.519Z,99957.78
2023-03-06T07:12:49.887Z,99939.03
2023-03-06T07:15:18.569Z,99942.69
2023-03-06T07:17:48.931Z,99940.91
2023-03-06T07:20:20.028Z,99945.47
2023-03-06T07:23:16.606Z,99945.28
2023-03-06T07:25:46.470Z,99944.84
2023-03-06T07:28:14.813Z,99943.47
2023-03-06T07:30:43.653Z,99942.94
2023-03-06T07:33:13.715Z,99940.06
2023-03-06T07:35:45.929Z,99949.13
2023-03-06T07:38:19.376Z,99941.94
2023-03-06T07:40:53.645Z,99938.84
2023-03-06T07:43:24.364Z,99943.41
2023-03-06T07:45:59.694Z,99936.84
2023-03-06T07:48:28.399Z,99942.72
2023-03-06T07:51:02.039Z,99936.31
2023-03-06T07:53:30.155Z,99935.88
2023-03-06T07:58:57.171Z,99936.47
2023-03-06T08:01:27.560Z,99943.59
2023-03-06T08:04:02.236Z,99944.66
2023-03-06T08:06:30.678Z,99953.75
2023-03-06T08:08:59.804Z,99961.81
2023-03-06T08:11:31.999Z,99963.91
2023-03-06T08:14:04.460Z,99971.69
2023-03-06T08:16:38.322Z,99982.56
2023-03-06T08:19:07.112Z,99972.31
2023-03-06T08:21:38.853Z,99973.66
2023-03-06T08:24:08.287Z,99968.50
2023-03-06T08:26:37.546Z,99981.16
2023-03-06T08:29:06.374Z,99986.56
2023-03-06T08:31:37.715Z,99988.84
2023-03-06T08:34:12.625Z,99994.56
2023-03-06T08:36:44.111Z,99996.00
2023-03-06T08:39:14.433Z,99991.75
2023-03-06T08:41:43.603Z,99997.00
2023-03-06T08:44:14.473Z,100003.78
2023-03-06T08:46:42.827Z,100003.28
2023-03-06T08:49:15.519Z,99993.75
2023-03-06T08:51:47.700Z,100011.19
2023-03-06T08:54:20.262Z,99999.88
2023-03-06T08:56:48.616Z,100002.59
2023-03-06T08:59:16.268Z,100001.94
2023-03-06T09:01:45.431Z,99997.44
2023-03-06T09:04:33.131Z,99992.22
2023-03-06T09:07:02.128Z,100002.59
2023-03-06T09:09:30.625Z,99990.19
2023-03-06T09:12:01.619Z,99997.03
2023-03-06T09:14:32.549Z,99990.66
2023-03-06T09:17:00.682Z,99979.72
2023-03-06T09:19:28.757Z,99985.28
2023-03-06T09:21:58.257Z,99984.44
2023-03-06T09:24:28.389Z,99985.50
2023-03-06T09:26:58.680Z,99991.41
2023-03-06T09:29:26.884Z,99985.84
2023-03-06T09:31:58.848Z,99976.53
2023-03-06T09:34:27.993Z,99990.22
2023-03-06T09:37:05.163Z,99986.75
2023-03-06T09:39:33.576Z,99983.31
2023-03-06T09:42:02.360Z,99983.38
2023-03-06T09:44:32.197Z,99982.38
2023-03-06T09:47:25.855Z,99977.22
2023-03-06T09:50:19.065Z,99981.47
2023-03-06T09:52:53.604Z,99981.97
2023-03-06T09:55:28.735Z,99987.69
2023-03-06T09:58:09.850Z,99984.75
2023-03-06T10:00:42.232Z,99986.72
2023-03-06T10:03:40.205Z,99979.66
2023-03-06T10:06:23.528Z,99982.81
2023-03-06T10:09:22.173Z,99978.34
2023-03-06T10:11:59.866Z,99973.34
2023-03-06T10:14:34.882Z,99976.50
2023-03-06T10:17:03.350Z,99969.81
2023-03-06T10:19:36.862Z,99972.09
2023-03-06T10:22:20.764Z,99970.56
2023-03-06T10:25:16.773Z,99971.38
2023-03-06T10:27:56.589Z,99966.03
2023-03-06T10:30:46.062Z,99964.81
2023-03-06T10:33:43.574Z,99968.84
2023-03-06T10:36:19.401Z,99969.44
2023-03-06T10:38:48.963Z,99966.66
2023-03-06T10:41:27.732Z,99957.75
2023-03-06T10:44:01.776Z,99959.69
2023-03-06T10:46:47.560Z,99967.25
2023-03-06T10:49:30.200Z,99973.22
2023-03-06T10:52:05.949Z,99960.19
2023-03-06T10:54:39.230Z,99961.75
2023-03-06T10:57:31.593Z,99965.50
2023-03-06T11:00:04.832Z,99975.50
2023-03-06T11:02:37.264Z,99963.03
2023-03-06T11:05:19.606Z,99968.19
2023-03-06T11:07:57.849Z,99968.41
2023-03-06T11:10:26.956Z,99961.31
2023-03-06T11:13:07.993Z,99964.59
2023-03-06T11:15:36.146Z,99965.72
2023-03-06T11:18:29.040Z,99952.63
2023-03-06T11:20:58.113Z,99958.63
2023-03-06T11:23:40.349Z,99943.06
2023-03-06T11:26:17.843Z,99948.03
2023-03-06T11:29:29.469Z,99948.38
2023-03-06T11:32:13.873Z,99950.66
2023-03-06T11:35:02.718Z,99956.16
2023-03-06T11:37:48.267Z,99954.59
2023-03-06T11:40:59.547Z,99965.94
2023-03-06T11:43:37.395Z,99965.31
2023-03-06T11:46:18.088Z,99961.56
2023-03-06T11:48:56.827Z,99957.13
2023-03-06T11:51:31.195Z,99968.81
2023-03-06T11:54:01.593Z,99951.63
2023-03-06T11:56:45.232Z,99961.50
2023-03-06T11:59:31.760Z,99960.88
2023-03-06T12:02:07.728Z,99966.75
2023-03-06T12:04:53.139Z,99955.91
2023-03-06T12:07:31.568Z,99960.44
2023-03-06T12:10:30.345Z,99971.56
2023-03-06T12:13:11.558Z,99969.03
2023-03-06T12:16:04.312Z,99963.91
2023-03-06T12:18:38.873Z,99954.19
2023-03-06T12:21:43.796Z,99974.78
2023-03-06T12:24:44.086Z,99970.63
2023-03-06T12:27:17.528Z,99981.72
2023-03-06T12:30:25.821Z,99978.72
2023-03-06T12:33:19.460Z,99990.28
2023-03-06T12:36:21.644Z,99989.00
2023-03-06T12:39:11.713Z,99976.03
2023-03-06T12:42:06.735Z,99986.47
2023-03-06T12:44:48.162Z,99983.06
2023-03-06T12:47:31.339Z,99982.03
2023-03-06T12:50:04.907Z,99985.13
2023-03-06T12:52:34.915Z,99988.78
2023-03-06T12:55:08.585Z,99995.78
2023-03-06T12:57:37.977Z,100000.72
2023-03-06T13:00:08.803Z,99995.28
2023-03-06T13:02:48.194Z,99997.81
2023-03-06T13:05:44.493Z,99994.91
2023-03-06T13:09:07.911Z,99992.09
2023-03-06T13:11:48.612Z,99990.63
2023-03-06T13:14:24.885Z,99992.06
2023-03-06T13:16:56.284Z,99994.44
2023-03-06T13:19:28.542Z,99997.44
2023-03-06T13:21:56.764Z,99996.63
2023-03-06T13:24:27.838Z,100010.22
2023-03-06T13:27:06.829Z,100011.53
2023-03-06T13:29:38.776Z,100008.09
2023-03-06T13:32:17.024Z,100017.44
2023-03-06T13:34:50.495Z,100018.28
2023-03-06T13:37:36.560Z,100019.25
2023-03-06T13:40:05.357Z,100026.13
2023-03-06T13:42:38.314Z,100032.13
2023-03-06T13:45:15.048Z,100030.09
2023-03-06T13:48:21.147Z,100024.00
2023-03-06T13:50:52.079Z,100032.13
2023-03-06T13:53:42.825Z,100028.91
2023-03-06T13:56:36.064Z,100035.75
2023-03-06T13:59:39.827Z,100034.25
2023-03-06T14:02:39.481Z,100042.34
2023-03-06T14:05:14.552Z,100043.84
2023-03-06T14:07:44.849Z,100046.59
2023-03-06T14:10:26.713Z,100051.16
2023-03-06T14:13:05.126Z,100049.00
2023-03-06T14:15:52.948Z,100052.81
2023-03-06T14:18:39.048Z,100056.00
2023-03-06T14:21:34.336Z,100062.81
2023-03-06T14:24:04.587Z,100069.97
2023-03-06T14:26:35.133Z,100065.38
2023-03-06T14:29:04.215Z,100070.81
2023-03-06T14:31:35.627Z,100078.75
2023-03-06T14:34:06.399Z,100079.91
2023-03-06T14:36:46.596Z,100086.28
2023-03-06T14:39:33.892Z,100082.88
2023-03-06T14:42:29.768Z,100090.09
2023-03-06T14:45:17.630Z,100090.41
2023-03-06T14:47:53.309Z,100090.91
2023-03-06T14:50:27.127Z,100097.50
2023-03-06T14:53:08.351Z,100092.75
2023-03-06T14:55:37.022Z,100098.84
2023-03-06T14:58:12.944Z,100096.06
2023-03-06T15:00:46.652Z,100106.53
2023-03-06T15:03:20.621Z,100110.81
2023-03-06T15:05:51.792Z,100110.34
2023-03-06T15:08:27.120Z,100110.03
2023-03-06T15:11:06.747Z,100120.50
2023-03-06T15:13:37.242Z,100126.28
2023-03-06T15:16:29.917Z,100122.75
2023-03-06T15:19:04.145Z,100120.63
2023-03-06T15:21:38.514Z,100114.91
2023-03-06T15:24:35.932Z,100124.97
2023-03-06T15:27:07.827Z,100132.44
2023-03-06T15:29:39.378Z,100129.28
2023-03-06T15:32:16.410Z,100128.00
2023-03-06T15:34:44.545Z,100133.44
2023-03-06T15:37:29.045Z,100130.06
2023-03-06T15:40:09.514Z,100129.31
2023-03-06T15:42:38.387Z,100129.50
2023-03-06T15:45:22.039Z,100124.44
2023-03-06T15:47:56.061Z,100132.59
2023-03-06T15:50:27.511Z,100134.50
2023-03-06T15:52:56.909Z,100130.97
2023-03-06T15:55:28.904Z,100138.97
2023-03-06T15:58:01.166Z,100133.81
2023-03-06T16:00:40.419Z,100131.56
2023-03-06T16:03:10.967Z,100136.28
2023-03-06T16:05:39.161Z,100133.09
2023-03-06T16:08:07.630Z,100139.22
2023-03-06T16:10:39.590Z,100137.41
2023-03-06T16:13:32.413Z,100135.69
2023-03-06T16:16:00.400Z,100144.44
2023-03-06T16:18:37.961Z,100146.16
2023-03-06T16:21:06.824Z,100155.78
2023-03-06T16:23:39.136Z,100152.09
2023-03-06T16:26:36.739Z,100147.63
2023-03-06T16:29:05.185Z,100149.44
2023-03-06T16:31:33.204Z,100156.53
2023-03-06T16:34:04.590Z,100159.13
2023-03-06T16:36:34.914Z,100159.03
2023-03-06T16:39:04.469Z,100167.03
2023-03-06T16:41:38.128Z,100161.66
2023-03-06T16:44:08.041Z,100163.41
2023-03-06T16:46:44.456Z,100166.06
2023-03-06T16:49:25.478Z,100160.69
2023-03-06T16:51:54.562Z,100174.00
2023-03-06T16:54:26.366Z,100172.28
2023-03-06T16:56:55.153Z,100161.53
2023-03-06T16:59:25.317Z,100169.53
2023-03-06T17:01:53.665Z,100171.59
2023-03-06T17:04:21.729Z,100169.69
2023-03-06T17:06:55.755Z,100179.66
2023-03-06T17:09:24.919Z,100175.53
2023-03-06T17:11:53.510Z,100173.88
2023-03-06T17:14:21.650Z,100178.34
2023-03-06T17:16:49.430Z,100179.16
2023-03-06T17:19:20.236Z,100182.13
2023-03-06T17:21:48.458Z,100174.84
2023-03-06T17:24:16.391Z,100175.78
2023-03-06T17:26:47.285Z,100172.19
2023-03-06T17:29:15.729Z,100175.44
2023-03-06T17:31:44.143Z,100177.06
2023-03-06T17:34:12.423Z,100173.38
2023-03-06T17:36:41.437Z,100185.84
2023-03-06T17:39:13.549Z,100186.84
2023-03-06T17:41:46.370Z,100186.84
2023-03-06T17:44:20.508Z,100190.31
2023-03-06T17:46:50.452Z,100191.31
2023-03-06T17:49:19.782Z,100187.88
2023-03-06T17:51:47.699Z,100192.16
2023-03-06T17:54:16.347Z,100199.41
2023-03-06T17:56:47.558Z,100192.78
2023-03-06T17:59:15.744Z,100194.22
2023-03-06T18:01:47.155Z,100201.59
2023-03-06T18:04:15.364Z,100200.91
2023-03-06T18:06:43.596Z,100194.88
2023-03-06T18:09:14.698Z,100203.63
2023-03-06T18:11:46.192Z,100199.19
2023-03-06T18:14:14.704Z,100201.84
2023-03-06T18:16:54.134Z,100207.41
2023-03-06T18:19:22.684Z,100205.53
2023-03-06T18:21:51.025Z,100211.00
2023-03-06T18:27:14.193Z,100210.41
2023-03-06T18:29:43.556Z,100208.75
2023-03-06T18:32:14.703Z,100200.78
2023-03-06T18:34:42.760Z,100204.22
2023-03-06T18:37:16.620Z,100206.97
2023-03-06T18:39:45.483Z,100206.97
2023-03-06T18:42:16.078Z,100210.56
2023-03-06T18:44:49.541Z,100216.81
2023-03-06T18:47:17.831Z,100217.84
2023-03-06T18:49:46.316Z,100219.47
2023-03-06T18:52:15.452Z,100218.53
2023-03-06T18:54:45.397Z,100221.19
2023-03-06T18:57:13.531Z,100217.69
2023-03-06T18:59:59.573Z,100224.25
2023-03-06T19:02:32.554Z,100227.09
2023-03-06T19:05:00.983Z,100228.91
2023-03-06T19:07:29.204Z,100219.19
2023-03-06T19:09:57.570Z,100220.72
2023-03-06T19:12:28.782Z,100229.75
2023-03-06T19:14:57.142Z,100226.25
2023-03-06T19:17:25.434Z,100237.88
2023-03-06T19:19:55.766Z,100229.16
2023-03-06T19:22:24.541Z,100221.22
2023-03-06T19:24:55.457Z,100228.44
2023-03-06T19:27:23.655Z,100223.50
2023-03-06T19:29:51.793Z,100229.91
2023-03-06T19:32:20.156Z,100225.69
2023-03-06T19:34:49.997Z,100219.59
2023-03-06T19:37:21.032Z,100225.78
2023-03-06T19:39:49.207Z,100225.84
2023-03-06T19:42:20.199Z,100225.84
2023-03-06T19:44:48.359Z,100228.34
2023-03-06T19:47:18.338Z,100219.44
2023-03-06T19:49:47.139Z,100224.59
2023-03-06T19:52:15.634Z,100228.91
2023-03-06T19:54:47.769Z,100226.94
2023-03-06T19:57:16.643Z,100219.81
2023-03-06T19:59:52.085Z,100224.84
2023-03-06T20:02:27.188Z,100221.16
2023-03-06T20:04:56.027Z,100215.91
2023-03-06T20:07:27.438Z,100219.41
2023-03-06T20:10:03.328Z,100215.38
2023-03-06T20:12:33.512Z,100211.94
2023-03-06T20:15:02.398Z,100207.78
2023-03-06T20:17:34.087Z,100213.88
2023-03-06T20:20:03.243Z,100216.72
2023-03-06T20:22:34.256Z,100217.81
2023-03-06T20:25:06.857Z,100214.34
2023-03-06T20:27:35.371Z,100218.03
2023-03-06T20:30:03.984Z,100224.84
2023-03-06T20:32:36.537Z,100216.88
2023-03-06T20:35:05.402Z,100217.63
2023-03-06T20:37:35.001Z,100208.88
2023-03-06T20:40:03.991Z,100215.16
2023-03-06T20:42:32.640Z,100214.13
2023-03-06T20:45:01.173Z,100217.72
2023-03-06T20:47:30.849Z,100215.31
2023-03-06T20:49:59.428Z,100217.34
2023-03-06T20:52:29.440Z,100218.50
2023-03-06T20:54:57.803Z,100207.16
2023-03-06T20:57:25.917Z,100203.63
2023-03-06T20:59:56.738Z,100206.47
2023-03-06T21:02:24.940Z,100216.06
2023-03-06T21:04:53.309Z,100215.84
2023-03-06T21:07:21.592Z,100218.25
2023-03-06T21:09:52.769Z,100213.50
2023-03-06T21:12:23.807Z,100215.91
2023-03-06T21:14:52.174Z,100212.50
2023-03-06T21:17:25.901Z,100216.00
2023-03-06T21:19:54.199Z,100216.06
2023-03-06T21:22:30.811Z,100207.38
2023-03-06T21:25:00.005Z,100214.50
2023-03-06T21:27:28.744Z,100212.78
2023-03-06T21:29:57.428Z,100215.38
2023-03-06T21:32:26.352Z,100208.28
2023-03-06T21:34:54.605Z,100213.50
2023-03-06T21:37:22.863Z,100213.03
2023-03-06T21:39:50.920Z,100216.69
2023-03-06T21:42:21.353Z,100211.63
2023-03-06T21:44:49.354Z,100214.44
2023-03-06T21:47:17.490Z,100210.22
2023-03-06T21:49:49.470Z,100210.50
2023-03-06T21:52:21.041Z,100209.97
2023-03-06T21:54:49.899Z,100210.13
2023-03-06T21:57:20.934Z,100207.56
2023-03-06T21:59:49.555Z,100202.63
2023-03-06T22:02:18.237Z,100206.13
2023-03-06T22:04:50.671Z,100208.69
2023-03-06T22:07:20.547Z,100204.19
2023-03-06T22:09:55.752Z,100208.66
2023-03-06T22:12:26.907Z,100202.38
2023-03-06T22:14:55.253Z,100213.00
2023-03-06T22:17:24.355Z,100207.69
2023-03-06T22:19:52.957Z,100198.78
2023-03-06T22:22:23.110Z,100199.50
2023-03-06T22:24:52.158Z,100201.84
2023-03-06T22:27:20.224Z,100204.25
2023-03-06T22:29:48.406Z,100205.81
2023-03-06T22:32:17.102Z,100195.13
2023-03-06T22:34:45.379Z,100194.94
2023-03-06T22:37:33.620Z,100207.09
2023-03-06T22:40:02.457Z,100200.84
2023-03-06T22:42:31.009Z,100197.94
2023-03-06T22:45:07.029Z,100200.44
2023-03-06T22:47:38.655Z,100201.22
2023-03-06T22:50:07.363Z,100190.59
2023-03-06T22:52:38.582Z,100188.88
2023-03-06T22:55:10.741Z,100193.25
2023-03-06T22:57:44.729Z,100191.44
2023-03-06T23:00:15.033Z,100189.56
2023-03-06T23:02:44.424Z,100189.47
2023-03-06T23:05:13.809Z,100183.25
2023-03-06T23:07:44.266Z,100194.75
2023-03-06T23:10:12.914Z,100184.25
2023-03-06T23:12:42.135Z,100191.13
2023-03-06T23:15:11.074Z,100187.53
2023-03-06T23:17:40.264Z,100181.25
2023-03-06T23:20:10.502Z,100193.47
2023-03-06T23:22:38.484Z,100192.59
2023-03-06T23:25:06.922Z,100181.13
2023-03-06T23:27:36.243Z,100194.34
2023-03-06T23:30:09.500Z,100187.22
2023-03-06T23:32:37.828Z,100177.50
2023-03-06T23:35:07.909Z,100181.06
2023-03-06T23:37:39.008Z,100176.50
2023-03-06T23:40:09.738Z,100176.66
2023-03-06T23:42:38.887Z,100178.44
2023-03-06T23:45:08.192Z,100175.78
2023-03-06T23:47:37.867Z,100176.84
2023-03-06T23:50:06.840Z,100175.09
2023-03-06T23:52:38.891Z,100176.19
2023-03-06T23:55:07.781Z,100178.00
2023-03-06T23:57:35.978Z,100168.22
